Home > Products > Valid Products > MTR

000
SAUS44 KLCH 241454
MTRP92
METAR KP92 241453Z AUTO VRB06KT 28/23 A3005 RMK AO1 SLP176 T02830233
51006





000
SAUS44 KLCH 241354
MTRP92
METAR KP92 241353Z AUTO VRB05KT 28/23 A3005 RMK AO1 SLP174 T02830233





000
SAUS44 KLCH 241254
MTRP92
METAR KP92 241253Z AUTO VRB05KT 27/23 A3004 RMK AO1 SLP171 T02720233





000
SAUS44 KLCH 241154
MTRP92
METAR KP92 241153Z AUTO VRB03KT 26/23 A3003 RMK AO1 SLP170 T02560233
10267 20244





000
SAUS44 KLCH 241154
MTRP92
METAR KP92 241153Z AUTO VRB03KT 26/23 A3003 RMK AO1 SLP170 T02560233
10267 20244





000
SAUS44 KLCH 241054
MTRP92
METAR KP92 241053Z AUTO 11005KT 25/23 A3001 RMK AO1 SLP161 T02500233





000
SAUS44 KLCH 241054
MTRP92
METAR KP92 241053Z AUTO 11005KT 25/23 A3001 RMK AO1 SLP161 T02500233





000
SAUS44 KLCH 240954
MTRP92
METAR KP92 240953Z AUTO 13009KT 26/22 A3000 RMK AO1 SLP159 T02560222





000
SAUS44 KLCH 240954
MTRP92
METAR KP92 240953Z AUTO 13009KT 26/22 A3000 RMK AO1 SLP159 T02560222





000
SAUS44 KLCH 240854
MTRP92
METAR KP92 240853Z AUTO 12005KT 26/23 A3003 RMK AO1 SLP168 T02560233
58010





000
SAUS44 KLCH 240755
MTRP92
METAR KP92 240753Z AUTO 13005KT 26/23 A3005 RMK AO1 SLP174 T02560233





000
SAUS44 KLCH 240755
MTRP92
METAR KP92 240753Z AUTO 13005KT 26/23 A3005 RMK AO1 SLP174 T02560233





000
SAUS44 KLCH 240654
MTRP92
METAR KP92 240653Z AUTO 13006KT 26/23 A3005 RMK AO1 SLP176 T02560233





000
SAUS44 KLCH 240654
MTRP92
METAR KP92 240653Z AUTO 13006KT 26/23 A3005 RMK AO1 SLP176 T02560233





000
SAUS44 KLCH 240556
MTRP92
METAR KP92 240553Z AUTO 13007KT 26/23 A3006 RMK AO1 SLP179 T02560233
10278 20256 403000222 58002





000
SAUS44 KLCH 240556
MTRP92
METAR KP92 240553Z AUTO 13007KT 26/23 A3006 RMK AO1 SLP179 T02560233
10278 20256 403000222 58002





000
SAUS44 KLCH 240454
MTRP92
METAR KP92 240453Z AUTO 13007KT 26/23 A3008 RMK AO1 SLP185 T02560233





000
SAUS44 KLCH 240354
MTRP92
METAR KP92 240353Z AUTO 12004KT 26/24 A3007 RMK AO1 SLP183 T02560239





000
SAUS44 KLCH 240254
MTRP92
METAR KP92 240253Z AUTO 12005KT 26/23 A3007 RMK AO1 SLP181 T02560233
55001





000
SAUS44 KLCH 240155
MTRP92
METAR KP92 240153Z AUTO 11005KT 26/23 A3005 RMK AO1 SLP177 T02610228





000
SAUS44 KLCH 240054
MTRP92
METAR KP92 240053Z AUTO 13007KT 27/23 A3006 RMK AO1 SLP177 T02670228





000
SAUS44 KLCH 232355
MTRP92
METAR KP92 232353Z AUTO 14007KT 28/23 A3007 RMK AO1 SLP182 T02780233
10300 20278 56011





000
SAUS44 KLCH 232255
MTRP92
METAR KP92 232253Z AUTO 16007KT 120V190 28/23 A3008 RMK AO1 SLP185
T02830228





000
SAUS44 KLCH 232255
MTRP92
METAR KP92 232253Z AUTO 16007KT 120V190 28/23 A3008 RMK AO1 SLP185
T02830228





000
SAUS44 KLCH 232154
MTRP92
METAR KP92 232153Z AUTO VRB05KT 28/23 A3009 RMK AO1 SLP189 T02830228





000
SAUS44 KLCH 232054
MTRP92
METAR KP92 232053Z AUTO VRB05KT 29/23 A3010 RMK AO1 SLP193 T02890233
58021





000
SAUS44 KLCH 232054
MTRP92
METAR KP92 232053Z AUTO VRB05KT 29/23 A3010 RMK AO1 SLP193 T02890233
58021





000
SAUS44 KLCH 231954
MTRP92
METAR KP92 231953Z AUTO VRB06KT 30/23 A3013 RMK AO1 SLP202 T03000233





000
SAUS44 KLCH 231954
MTRP92
METAR KP92 231953Z AUTO VRB06KT 30/23 A3013 RMK AO1 SLP202 T03000233





000
SAUS44 KLCH 231854
MTRP92
METAR KP92 231853Z AUTO VRB05KT 29/23 A3015 RMK AO1 SLP209 T02890228





000
SAUS44 KLCH 231854
MTRP92
METAR KP92 231853Z AUTO VRB05KT 29/23 A3015 RMK AO1 SLP209 T02890228





000
SAUS44 KLCH 231755
MTRP92
METAR KP92 231753Z AUTO 14008KT 29/23 A3016 RMK AO1 SLP214 T02890228
10294 20228 58002





000
SAUS44 KLCH 231755
MTRP92
METAR KP92 231753Z AUTO 14008KT 29/23 A3016 RMK AO1 SLP214 T02890228
10294 20228 58002





000
SAUS44 KLCH 231654
MTRP92
METAR KP92 231653Z AUTO 13016KT 29/22 A3017 RMK AO1 SLP216 T02890222





000
SAUS44 KLCH 231554
MTRP92
METAR KP92 231553Z AUTO 11007KT 060V150 29/23 A3017 RMK AO1 SLP217
T02890228





000
SAUS44 KLCH 231454
MTRP92
METAR KP92 231453Z AUTO VRB06KT 27/23 A3017 RMK AO1 SLP215 T02720228
51002





000
SAUS44 KLCH 231354
MTRP92
METAR KP92 231353Z AUTO 12005KT 26/23 A3017 RMK AO1 SLP215 T02610228





000
SAUS44 KLCH 231254
MTRP92
METAR KP92 231253Z AUTO 12007KT 25/22 A3017 RMK AO1 SLP215 T02500222





000
SAUS44 KLCH 231254
MTRP92
METAR KP92 231253Z AUTO 12007KT 25/22 A3017 RMK AO1 SLP215 T02500222





000
SAUS44 KLCH 231154
MTRP92
METAR KP92 231153Z AUTO VRB03KT 23/22 A3016 RMK AO1 SLP214 T02280217
10228 20222 53013





000
SAUS44 KLCH 231154
MTRP92
METAR KP92 231153Z AUTO VRB03KT 23/22 A3016 RMK AO1 SLP214 T02280217
10228 20222 53013





000
SAUS44 KLCH 231054
MTRP92
METAR KP92 231053Z AUTO 00000KT 22/22 A3015 RMK AO1 SLP208 T02220217





000
SAUS44 KLCH 231054
MTRP92
METAR KP92 231053Z AUTO 00000KT 22/22 A3015 RMK AO1 SLP208 T02220217





000
SAUS44 KLCH 230954
MTRP92
METAR KP92 230953Z AUTO 00000KT 22/22 A3014 RMK AO1 SLP204 T02220217





000
SAUS44 KLCH 230854
MTRP92
METAR KP92 230853Z AUTO 00000KT 22/22 A3013 RMK AO1 SLP201 T02220217
55000





000
SAUS44 KLCH 230854
MTRP92
METAR KP92 230853Z AUTO 00000KT 22/22 A3013 RMK AO1 SLP201 T02220217
55000





000
SAUS44 KLCH 230755
MTRP92
METAR KP92 230753Z AUTO VRB03KT 23/22 A3012 RMK AO1 SLP199 T02280217





000
SAUS44 KLCH 230654
MTRP92
METAR KP92 230653Z AUTO 00000KT 23/22 A3012 RMK AO1 SLP198 T02280217





000
SAUS44 KLCH 230654
MTRP92
METAR KP92 230653Z AUTO 00000KT 23/22 A3012 RMK AO1 SLP198 T02280217





000
SAUS44 KLCH 230554
MTRP92
METAR KP92 230553Z AUTO 00000KT 23/22 A3013 RMK AO1 SLP201 T02280217
10267 20228 402780206 58002





000
SAUS44 KLCH 230554
MTRP92
METAR KP92 230553Z AUTO 00000KT 23/22 A3013 RMK AO1 SLP201 T02280217
10267 20228 402780206 58002





000
SAUS44 KLCH 230455
MTRP92
METAR KP92 230453Z AUTO 00000KT 23/22 A3014 RMK AO1 SLP204 T02330217





000
SAUS44 KLCH 230355
MTRP92
METAR KP92 230353Z AUTO 00000KT 23/22 A3014 RMK AO1 SLP206 T02330217





000
SAUS44 KLCH 230254
MTRP92
METAR KP92 230253Z AUTO 00000KT 24/22 A3013 RMK AO1 SLP204 T02390222
52009





000
SAUS44 KLCH 230254
MTRP92
METAR KP92 230253Z AUTO 00000KT 24/22 A3013 RMK AO1 SLP204 T02390222
52009





000
SAUS44 KLCH 230154
MTRP92
METAR KP92 230153Z AUTO 00000KT 24/22 A3012 RMK AO1 SLP200 T02440222





000
SAUS44 KLCH 230055
MTRP92
METAR KP92 230053Z AUTO 13004KT 26/22 A3012 RMK AO1 SLP198 T02560222





000
SAUS44 KLCH 230055
MTRP92
METAR KP92 230053Z AUTO 13004KT 26/22 A3012 RMK AO1 SLP198 T02560222





000
SAUS44 KLCH 222355
MTRP92
METAR KP92 222353Z AUTO 14005KT 27/22 A3011 RMK AO1 SLP194 T02720222
10278 20250 55004





000
SAUS44 KLCH 222254
MTRP92
METAR KP92 222253Z AUTO 12004KT 27/22 A3010 RMK AO1 SLP194 T02720222





000
SAUS44 KLCH 222155
MTRP92
METAR KP92 222153Z AUTO 11007KT 27/22 A3011 RMK AO1 SLP194 T02720217





000
SAUS44 KLCH 222054
MTRP92
METAR KP92 222053Z AUTO 13005KT 27/22 A3012 RMK AO1 SLP198 T02720217
58007





000
SAUS44 KLCH 221955
MTRP92
METAR KP92 221953Z AUTO 14004KT 26/21 A3013 RMK AO1 SLP203 T02610211





000
SAUS44 KLCH 221854
MTRP92
METAR KP92 221853Z AUTO VRB05KT 26/21 A3013 RMK AO1 SLP203 T02610211





000
SAUS44 KLCH 221854
MTRP92
METAR KP92 221853Z AUTO VRB05KT 26/21 A3013 RMK AO1 SLP203 T02610211





000
SAUS44 KLCH 221754
MTRP92
METAR KP92 221753Z AUTO VRB04KT 25/21 A3014 RMK AO1 SLP205 T02500206
10256 20206 55002





000
SAUS44 KLCH 221754
MTRP92
METAR KP92 221753Z AUTO VRB04KT 25/21 A3014 RMK AO1 SLP205 T02500206
10256 20206 55002





000
SAUS44 KLCH 221655
MTRP92
METAR KP92 221653Z AUTO 12006KT 24/20 A3013 RMK AO1 SLP201 T02390200





000
SAUS44 KLCH 221554
MTRP92
METAR KP92 221553Z AUTO VRB06KT 23/19 A3015 RMK AO1 SLP207 T02330194





000
SAUS44 KLCH 221554
MTRP92
METAR KP92 221553Z AUTO VRB06KT 23/19 A3015 RMK AO1 SLP207 T02330194





000
SAUS44 KLCH 221454
MTRP92
METAR KP92 221453Z AUTO 06006KT 22/19 A3014 RMK AO1 SLP207 T02220189
50006





000
SAUS44 KLCH 221354
MTRP92
METAR KP92 221353Z AUTO VRB04KT 22/19 A3015 RMK AO1 SLP208 T02170189





000
SAUS44 KLCH 221255
MTRP92
METAR KP92 221253Z AUTO VRB03KT 21/19 A3013 RMK AO1 SLP202 T02060189





000
SAUS44 KLCH 221155
MTRP92
METAR KP92 221153Z AUTO VRB04KT 21/19 A3013 RMK AO1 SLP201 7////
T02060189 10222 20206 53024





000
SAUS44 KLCH 221155
MTRP92
METAR KP92 221153Z AUTO VRB04KT 21/19 A3013 RMK AO1 SLP201 7////
T02060189 10222 20206 53024





000
SAUS44 KLCH 221054
MTRP92
METAR KP92 221053Z AUTO VRB05KT 21/19 A3010 RMK AO1 SLP193 T02110194





000
SAUS44 KLCH 221054
MTRP92
METAR KP92 221053Z AUTO VRB05KT 21/19 A3010 RMK AO1 SLP193 T02110194





000
SAUS44 KLCH 220954
MTRP92
METAR KP92 220953Z AUTO VRB05KT 22/20 A3007 RMK AO1 SLP183 T02170200





000
SAUS44 KLCH 220855
MTRP92
METAR KP92 220853Z AUTO 01004KT 22/21 A3005 RMK AO1 SLP177 T02170206
55000





000
SAUS44 KLCH 220855
MTRP92
METAR KP92 220853Z AUTO 01004KT 22/21 A3005 RMK AO1 SLP177 T02170206
55000





000
SAUS44 KLCH 220755
MTRP92
METAR KP92 220753Z AUTO 00000KT 22/21 A3005 RMK AO1 SLP175 T02220206





000
SAUS44 KLCH 220655
MTRP92
METAR KP92 220653Z AUTO 01003KT 22/21 A3005 RMK AO1 SLP176 T02220211





000
SAUS44 KLCH 220655
MTRP92
METAR KP92 220653Z AUTO 01003KT 22/21 A3005 RMK AO1 SLP176 T02220211





000
SAUS44 KLCH 220555
MTRP92
METAR KP92 220553Z AUTO VRB04KT 22/21 A3005 RMK AO1 SLP177 T02220211
10244 20222 403000222 50007





000
SAUS44 KLCH 220455
MTRP92
METAR KP92 220453Z AUTO VRB04KT 23/21 A3006 RMK AO1 SLP178 T02280211





000
SAUS44 KLCH 220354
MTRP92
METAR KP92 220353Z AUTO 35004KT 23/22 A3005 RMK AO1 SLP177 T02280217





000
SAUS44 KLCH 220255
MTRP92
METAR KP92 220253Z AUTO VRB03KT 23/22 A3003 RMK AO1 SLP170 T02280217
53005





000
SAUS44 KLCH 220155
MTRP92
METAR KP92 220153Z AUTO 00000KT 23/21 A3002 RMK AO1 SLP166 T02280211





000
SAUS44 KLCH 220054
MTRP92
METAR KP92 220053Z AUTO 00000KT 23/21 A3002 RMK AO1 SLP164 T02330206





000
SAUS44 KLCH 212355
MTRP92
METAR KP92 212353Z AUTO VRB04KT 24/21 A3002 RMK AO1 SLP164 6////
T02440206 10300 20244 53002





000
SAUS44 KLCH 212355
MTRP92
METAR KP92 212353Z AUTO VRB04KT 24/21 A3002 RMK AO1 SLP164 6////
T02440206 10300 20244 53002





000
SAUS44 KLCH 212254
MTRP92
METAR KP92 212253Z AUTO 01007KT 25/21 A3001 RMK AO1 SLP163 T02500206





000
SAUS44 KLCH 212254
MTRP92
METAR KP92 212253Z AUTO 01007KT 25/21 A3001 RMK AO1 SLP163 T02500206





000
SAUS44 KLCH 212154
MTRP92
METAR KP92 212153Z AUTO 35009G17KT 25/20 A3002 RMK AO1 SLP164
T02500200





000
SAUS44 KLCH 212154
MTRP92
METAR KP92 212153Z AUTO 35009G17KT 25/20 A3002 RMK AO1 SLP164
T02500200





000
SAUS44 KLCH 212054
MTRP92
METAR KP92 212053Z AUTO VRB04KT 29/22 A3001 RMK AO1 SLP163 6////
T02890222 $





000
SAUS44 KLCH 212054
MTRP92
METAR KP92 212053Z AUTO VRB04KT 29/22 A3001 RMK AO1 SLP163 6////
T02890222 $





000
SAUS44 KLCH 211955
MTRP92
METAR KP92 211953Z AUTO VRB04KT 29/22 A3001 RMK AO1 SLP162 T02890222





000
SAUS44 KLCH 211955
MTRP92
METAR KP92 211953Z AUTO VRB04KT 29/22 A3001 RMK AO1 SLP162 T02890222





000
SAUS44 KLCH 211754
MTRP92
METAR KP92 211753Z AUTO VRB03KT 29/23 A3003 RMK AO1 SLP168 T02940233
10294 20239 58002





000
SAUS44 KLCH 211754
MTRP92
METAR KP92 211753Z AUTO VRB03KT 29/23 A3003 RMK AO1 SLP168 T02940233
10294 20239 58002





000
SAUS44 KLCH 211655
MTRP92
METAR KP92 211653Z AUTO 22004KT 29/23 A3004 RMK AO1 SLP170 T02890233





000
SAUS44 KLCH 211655
MTRP92
METAR KP92 211653Z AUTO 22004KT 29/23 A3004 RMK AO1 SLP170 T02890233





000
SAUS44 KLCH 211555
MTRP92
METAR KP92 211553Z AUTO VRB03KT 28/23 A3004 RMK AO1 SLP172 T02830233





000
SAUS44 KLCH 211555
MTRP92
METAR KP92 211553Z AUTO VRB03KT 28/23 A3004 RMK AO1 SLP172 T02830233





    US Dept of Commerce
    National Oceanic and Atmospheric Administration
    National Weather Service
    1325 East West Highway
    Silver Spring, MD 20910
    Page Author: NWS Internet Services Team
Disclaimer
Information Quality
Credits
Glossary
Privacy Policy
Freedom of Information Act (FOIA)
About Us
Career Opportunities